createdAt,value
2018-10-07T00:01:32.319Z,26
2018-10-07T00:04:29.169Z,26.1
2018-10-07T00:07:26.110Z,26.1
2018-10-07T00:10:23.050Z,26.1
2018-10-07T00:13:20.128Z,26.1
2018-10-07T00:16:17.045Z,26.1
2018-10-07T00:19:14.125Z,26.1
2018-10-07T00:25:08.256Z,26.2
2018-10-07T00:28:05.061Z,26.2
2018-10-07T00:31:02.128Z,26.2
2018-10-07T00:36:56.149Z,26.3
2018-10-07T00:39:53.106Z,26.4
2018-10-07T00:42:50.259Z,26.4
2018-10-07T00:45:47.093Z,26.4
2018-10-07T00:48:44.120Z,26.5
2018-10-07T00:51:41.110Z,26.6
2018-10-07T00:54:38.216Z,26.6
2018-10-07T00:57:35.061Z,26.8
2018-10-07T01:00:32.117Z,26.8
2018-10-07T01:03:29.157Z,26.8
2018-10-07T01:06:26.245Z,27
2018-10-07T01:09:23.144Z,27
2018-10-07T01:12:20.171Z,27.1
2018-10-07T01:15:17.251Z,27.2
2018-10-07T01:18:14.181Z,27.2
2018-10-07T01:21:11.189Z,27.3
2018-10-07T01:24:08.192Z,27.4
2018-10-07T01:27:05.174Z,27.5
2018-10-07T01:30:02.240Z,27.6
2018-10-07T01:32:59.181Z,27.6
2018-10-07T01:35:56.196Z,27.6
2018-10-07T01:41:50.196Z,27.8
2018-10-07T01:44:47.116Z,27.8
2018-10-07T01:47:44.228Z,27.9
2018-10-07T01:50:41.172Z,28
2018-10-07T01:53:38.459Z,28
2018-10-07T01:56:35.200Z,28.1
2018-10-07T01:59:32.541Z,28
2018-10-07T02:05:26.265Z,28.1
2018-10-07T02:08:23.142Z,28.2
2018-10-07T02:11:20.295Z,28.2
2018-10-07T02:14:17.235Z,28.2
2018-10-07T02:17:14.305Z,28.4
2018-10-07T02:20:11.219Z,28.4
2018-10-07T02:23:08.226Z,28.4
2018-10-07T02:26:05.202Z,28.5
2018-10-07T02:29:02.239Z,28.5
2018-10-07T02:31:59.191Z,28.6
2018-10-07T02:34:56.320Z,28.6
2018-10-07T02:37:53.334Z,28.7
2018-10-07T02:40:50.326Z,28.8
2018-10-07T02:43:47.371Z,28.9
2018-10-07T02:46:44.352Z,29
2018-10-07T02:49:41.303Z,29
2018-10-07T02:52:38.281Z,29.1
2018-10-07T02:55:35.250Z,29.2
2018-10-07T02:58:32.299Z,29.2
2018-10-07T03:01:29.244Z,29.2
2018-10-07T03:04:26.398Z,29.4
2018-10-07T03:07:23.273Z,29.4
2018-10-07T03:10:20.397Z,29.5
2018-10-07T03:13:17.433Z,29.6
2018-10-07T03:16:14.354Z,29.6
2018-10-07T03:19:11.379Z,29.6
2018-10-07T03:22:08.382Z,29.7
2018-10-07T03:25:05.261Z,29.8
2018-10-07T03:28:02.567Z,29.9
2018-10-07T03:30:59.312Z,29.9
2018-10-07T03:36:53.555Z,30
2018-10-07T03:39:50.336Z,30
2018-10-07T03:42:47.477Z,30.1
2018-10-07T03:45:44.477Z,30.2
2018-10-07T03:48:41.462Z,30.3
2018-10-07T03:51:38.466Z,30.4
2018-10-07T03:54:35.341Z,30.5
2018-10-07T03:57:32.295Z,30.6
2018-10-07T04:00:29.412Z,30.8
2018-10-07T04:03:26.519Z,30.8
2018-10-07T04:06:23.609Z,30.7
2018-10-07T04:09:20.390Z,30.8
2018-10-07T04:12:17.563Z,30.9
2018-10-07T04:15:14.407Z,31
2018-10-07T04:21:08.430Z,31
2018-10-07T04:24:05.405Z,31.2
2018-10-07T04:27:02.548Z,31.3
2018-10-07T04:29:59.441Z,31.2
2018-10-07T04:32:56.477Z,31.1
2018-10-07T04:35:53.431Z,31.1
2018-10-07T04:38:50.522Z,31.1
2018-10-07T04:44:44.688Z,31.3
2018-10-07T04:47:41.406Z,31.5
2018-10-07T04:50:38.559Z,31.7
2018-10-07T04:53:35.454Z,31.7
2018-10-07T04:56:32.443Z,31.8
2018-10-07T04:59:29.445Z,31.8
2018-10-07T05:05:23.597Z,31.9
2018-10-07T05:08:20.639Z,32
2018-10-07T05:11:17.583Z,32
2018-10-07T05:14:14.496Z,32.2
2018-10-07T05:17:11.538Z,32.1
2018-10-07T05:20:08.472Z,32.1
2018-10-07T05:23:05.518Z,32.2
2018-10-07T05:26:02.649Z,32.2
2018-10-07T05:28:59.502Z,32.2
2018-10-07T05:31:56.533Z,32.3
2018-10-07T05:34:53.590Z,32.4
2018-10-07T05:37:50.534Z,32.4
2018-10-07T05:40:47.638Z,32.5
2018-10-07T05:43:44.666Z,32.5
2018-10-07T05:46:41.553Z,32.5
2018-10-07T05:49:38.626Z,32.5
2018-10-07T05:52:35.574Z,32.6
2018-10-07T05:55:32.615Z,32.7
2018-10-07T05:58:29.598Z,32.7
2018-10-07T06:07:20.644Z,32.7
2018-10-07T06:10:17.525Z,32.7
2018-10-07T06:13:14.696Z,32.8
2018-10-07T06:16:11.670Z,32.8
2018-10-07T06:19:08.709Z,32.8
2018-10-07T06:22:05.532Z,32.8
2018-10-07T06:25:02.778Z,32.7
2018-10-07T06:30:57.289Z,32.7
2018-10-07T06:33:53.606Z,32.8
2018-10-07T06:36:50.687Z,32.8
2018-10-07T06:39:47.672Z,32.9
2018-10-07T06:45:41.721Z,32.8
2018-10-07T06:48:38.598Z,32.8
2018-10-07T06:51:35.797Z,32.9
2018-10-07T06:54:32.648Z,33.1
2018-10-07T06:57:29.827Z,33.1
2018-10-07T07:00:26.669Z,33.2
2018-10-07T07:03:23.693Z,33.3
2018-10-07T07:06:20.642Z,33.3
2018-10-07T07:09:17.666Z,33.3
2018-10-07T07:12:14.612Z,33.3
2018-10-07T07:15:11.772Z,33.3
2018-10-07T07:18:08.663Z,33.4
2018-10-07T07:21:06.006Z,33.6
2018-10-07T07:24:02.655Z,33.5
2018-10-07T07:26:59.765Z,33.2
2018-10-07T07:29:56.689Z,33.1
2018-10-07T07:32:53.778Z,32.9
2018-10-07T07:35:50.756Z,32.6
2018-10-07T07:38:47.862Z,32.4
2018-10-07T07:41:44.841Z,32.3
2018-10-07T07:47:38.849Z,32.2
2018-10-07T07:50:35.808Z,32
2018-10-07T07:53:32.806Z,31.9
2018-10-07T07:59:26.741Z,31.8
2018-10-07T08:05:20.879Z,31.7
2018-10-07T08:08:17.758Z,31.6
2018-10-07T08:11:14.850Z,31.5
2018-10-07T08:14:11.935Z,31.4
2018-10-07T08:17:08.860Z,31.3
2018-10-07T08:20:05.756Z,31.2
2018-10-07T08:28:56.852Z,31
2018-10-07T08:31:53.786Z,31
2018-10-07T08:34:50.949Z,31
2018-10-07T08:37:47.800Z,30.9
2018-10-07T08:40:45.438Z,30.8
2018-10-07T08:43:42.374Z,30.8
2018-10-07T08:46:38.925Z,30.8
2018-10-07T08:49:35.980Z,30.8
2018-10-07T08:52:32.842Z,30.8
2018-10-07T08:55:29.840Z,30.8
2018-10-07T08:58:26.858Z,30.6
2018-10-07T09:01:23.866Z,30.6
2018-10-07T09:07:17.888Z,30.5
2018-10-07T09:10:14.853Z,30.5
2018-10-07T09:13:12.069Z,30.5
2018-10-07T09:16:08.869Z,30.5
2018-10-07T09:19:06.170Z,30.5
2018-10-07T09:22:02.808Z,30.4
2018-10-07T09:24:59.854Z,30.4
2018-10-07T09:27:56.838Z,30.4
2018-10-07T09:30:53.894Z,30.4
2018-10-07T09:33:50.887Z,30.5
2018-10-07T09:36:48.113Z,30.5
2018-10-07T09:39:45.107Z,30.6
2018-10-07T09:42:42.021Z,30.6
2018-10-07T09:45:38.929Z,30.6
2018-10-07T09:48:36.375Z,30.5
2018-10-07T09:51:32.914Z,30.4
2018-10-07T09:54:30.028Z,30.5
2018-10-07T09:57:26.862Z,30.4
2018-10-07T10:00:23.921Z,30.5
2018-10-07T10:03:20.898Z,30.4
2018-10-07T10:06:17.935Z,30.4
2018-10-07T10:09:14.897Z,30.2
2018-10-07T10:12:12.036Z,30
2018-10-07T10:15:08.918Z,30
2018-10-07T10:18:06.271Z,29.9
2018-10-07T10:24:00.030Z,29.6
2018-10-07T10:26:56.988Z,29.4
2018-10-07T10:32:51.081Z,29.1
2018-10-07T10:38:45.255Z,28.8
2018-10-07T10:41:41.952Z,28.8
2018-10-07T10:44:39.159Z,28.8
2018-10-07T10:47:35.990Z,28.8
2018-10-07T10:50:33.033Z,28.8
2018-10-07T10:53:29.982Z,28.6
2018-10-07T10:56:27.080Z,28.6
2018-10-07T10:59:24.063Z,28.5
2018-10-07T11:05:18.081Z,28.4
2018-10-07T11:08:15.007Z,28.4
2018-10-07T11:11:12.205Z,28.3
2018-10-07T11:14:09.023Z,28.3
2018-10-07T11:17:06.073Z,28.3
2018-10-07T11:20:03.105Z,28.2
2018-10-07T11:23:00.055Z,28.2
2018-10-07T11:25:57.052Z,28.2
2018-10-07T11:28:54.062Z,28
2018-10-07T11:31:51.032Z,28
2018-10-07T11:34:48.215Z,28
2018-10-07T11:37:45.095Z,28
2018-10-07T11:40:42.158Z,28
2018-10-07T11:46:36.225Z,27.8
2018-10-07T11:49:33.104Z,27.9
2018-10-07T11:52:30.088Z,27.8
2018-10-07T11:55:27.284Z,27.9
2018-10-07T11:58:24.081Z,27.8
2018-10-07T12:01:21.089Z,27.9
2018-10-07T12:04:18.259Z,27.8
2018-10-07T12:07:15.113Z,27.8
2018-10-07T12:10:12.277Z,27.8
2018-10-07T12:13:09.131Z,27.8
2018-10-07T12:16:06.715Z,27.8
2018-10-07T12:19:03.172Z,27.8
2018-10-07T12:22:00.182Z,27.8
2018-10-07T12:24:57.177Z,27.8
2018-10-07T12:27:54.243Z,27.7
2018-10-07T12:30:51.133Z,27.8
2018-10-07T12:36:45.195Z,27.6
2018-10-07T12:39:42.102Z,27.6
2018-10-07T12:42:39.420Z,27.6
2018-10-07T12:45:36.647Z,27.6
2018-10-07T12:51:30.230Z,27.6
2018-10-07T12:57:24.182Z,27.6
2018-10-07T13:03:18.234Z,27.5
2018-10-07T13:15:06.306Z,27.4
2018-10-07T13:18:03.214Z,27.5
2018-10-07T13:21:00.278Z,27.4
2018-10-07T13:23:57.488Z,27.4
2018-10-07T13:26:54.252Z,27.4
2018-10-07T13:29:51.236Z,27.4
2018-10-07T13:32:48.261Z,27.4
2018-10-07T13:35:45.315Z,27.4
2018-10-07T13:38:42.261Z,27.5
2018-10-07T13:41:39.645Z,27.5
2018-10-07T13:50:30.396Z,27.5
2018-10-07T13:53:27.326Z,27.5
2018-10-07T13:56:24.474Z,27.5
2018-10-07T13:59:21.288Z,27.5
2018-10-07T14:02:18.385Z,27.5
2018-10-07T14:05:15.764Z,27.6
2018-10-07T14:11:09.395Z,27.6
2018-10-07T14:14:06.276Z,27.6
2018-10-07T14:17:03.318Z,27.6
2018-10-07T14:20:00.304Z,27.6
2018-10-07T14:22:57.424Z,27.6
2018-10-07T14:25:54.330Z,27.6
2018-10-07T14:28:51.356Z,27.6
2018-10-07T14:31:48.295Z,27.6
2018-10-07T14:34:45.345Z,27.6
2018-10-07T14:37:42.347Z,27.6
2018-10-07T14:40:39.410Z,27.6
2018-10-07T14:43:36.458Z,27.6
2018-10-07T14:46:33.592Z,27.6
2018-10-07T14:49:30.414Z,27.6
2018-10-07T14:52:27.351Z,27.6
2018-10-07T14:55:24.361Z,27.6
2018-10-07T14:58:21.444Z,27.6
2018-10-07T15:01:18.471Z,27.5
2018-10-07T15:04:15.365Z,27.5
2018-10-07T15:07:12.369Z,27.5
2018-10-07T15:10:09.496Z,27.4
2018-10-07T15:13:06.459Z,27.4
2018-10-07T15:16:03.467Z,27.4
2018-10-07T15:19:00.384Z,27.4
2018-10-07T15:21:57.425Z,27.4
2018-10-07T15:24:54.374Z,27.4
2018-10-07T15:27:51.389Z,27.4
2018-10-07T15:30:48.365Z,27.4
2018-10-07T15:33:45.510Z,27.3
2018-10-07T15:36:42.513Z,27.3
2018-10-07T15:39:39.419Z,27.3
2018-10-07T15:42:36.390Z,27.3
2018-10-07T15:45:33.439Z,27.3
2018-10-07T15:48:30.418Z,27.3
2018-10-07T15:51:27.457Z,27.3
2018-10-07T15:54:24.411Z,27.3
2018-10-07T15:57:21.479Z,27.3
2018-10-07T16:00:18.422Z,27.2
2018-10-07T16:03:15.520Z,27.2
2018-10-07T16:06:12.426Z,27.2
2018-10-07T16:09:09.650Z,27.2
2018-10-07T16:12:06.564Z,27.2
2018-10-07T16:15:03.481Z,27.2
2018-10-07T16:18:00.542Z,27.2
2018-10-07T16:20:57.525Z,27.2
2018-10-07T16:23:54.470Z,27.2
2018-10-07T16:26:51.500Z,27.2
2018-10-07T16:29:48.441Z,27.2
2018-10-07T16:32:45.515Z,27.2
2018-10-07T16:35:42.665Z,27.2
2018-10-07T16:38:39.520Z,27.1
2018-10-07T16:41:36.729Z,27.2
2018-10-07T16:44:33.507Z,27.2
2018-10-07T16:47:30.447Z,27.2
2018-10-07T16:50:27.616Z,27.2
2018-10-07T16:53:24.733Z,27.2
2018-10-07T16:56:21.630Z,27.2
2018-10-07T16:59:18.525Z,27.2
2018-10-07T17:02:15.640Z,27.2
2018-10-07T17:05:12.632Z,27.2
2018-10-07T17:08:09.740Z,27.2
2018-10-07T17:11:06.536Z,27.1
2018-10-07T17:14:03.565Z,27.2
2018-10-07T17:17:00.614Z,27.1
2018-10-07T17:19:57.657Z,27.2
2018-10-07T17:22:54.864Z,27.2
2018-10-07T17:25:51.576Z,27.1
2018-10-07T17:28:48.585Z,27.1
2018-10-07T17:31:45.640Z,27.1
2018-10-07T17:34:42.605Z,27.1
2018-10-07T17:37:39.691Z,27.1
2018-10-07T17:40:36.591Z,27.1
2018-10-07T17:43:33.658Z,27.1
2018-10-07T17:46:30.617Z,27.1
2018-10-07T17:49:27.601Z,27.1
2018-10-07T17:52:24.647Z,27.1
2018-10-07T17:55:21.556Z,27.1
2018-10-07T17:58:18.753Z,27.1
2018-10-07T18:01:15.543Z,27.1
2018-10-07T18:04:12.678Z,27.1
2018-10-07T18:07:09.738Z,27.1
2018-10-07T18:10:06.744Z,27.1
2018-10-07T18:13:03.669Z,27.1
2018-10-07T18:16:00.861Z,27.1
2018-10-07T18:18:57.789Z,27.1
2018-10-07T18:24:51.686Z,27
2018-10-07T18:27:48.596Z,27.1
2018-10-07T18:30:45.689Z,27.1
2018-10-07T18:33:42.644Z,27.1
2018-10-07T18:36:39.725Z,27.1
2018-10-07T18:39:37.108Z,27.1
2018-10-07T18:42:33.637Z,27
2018-10-07T18:45:30.636Z,27
2018-10-07T18:48:27.787Z,27
2018-10-07T18:51:24.652Z,27
2018-10-07T18:54:21.679Z,26.9
2018-10-07T18:57:18.729Z,26.9
2018-10-07T19:00:15.768Z,26.8
2018-10-07T19:03:12.750Z,26.8
2018-10-07T19:06:09.711Z,26.8
2018-10-07T19:09:06.819Z,26.8
2018-10-07T19:12:03.787Z,26.8
2018-10-07T19:15:00.704Z,26.8
2018-10-07T19:17:57.944Z,26.8
2018-10-07T19:20:54.789Z,26.8
2018-10-07T19:23:51.731Z,26.7
2018-10-07T19:26:48.710Z,26.7
2018-10-07T19:29:45.750Z,26.8
2018-10-07T19:32:42.672Z,26.7
2018-10-07T19:35:39.905Z,26.6
2018-10-07T19:38:36.688Z,26.6
2018-10-07T19:41:33.851Z,26.6
2018-10-07T19:44:30.801Z,26.6
2018-10-07T19:47:27.848Z,26.6
2018-10-07T19:50:24.941Z,26.5
2018-10-07T19:53:21.816Z,26.5
2018-10-07T19:56:18.720Z,26.5
2018-10-07T19:59:16.123Z,26.4
2018-10-07T20:02:12.786Z,26.4
2018-10-07T20:05:09.900Z,26.4
2018-10-07T20:08:07.284Z,26.4
2018-10-07T20:11:03.878Z,26.4
2018-10-07T20:14:00.925Z,26.3
2018-10-07T20:16:57.863Z,26.3
2018-10-07T20:19:54.812Z,26.3
2018-10-07T20:22:51.868Z,26.2
2018-10-07T20:25:48.800Z,26.2
2018-10-07T20:28:46.249Z,26.2
2018-10-07T20:31:42.831Z,26.2
2018-10-07T20:34:39.834Z,26.2
2018-10-07T20:37:37.119Z,26.2
2018-10-07T20:40:33.912Z,26.2
2018-10-07T20:43:30.776Z,26.2
2018-10-07T20:46:27.823Z,26.2
2018-10-07T20:49:24.842Z,26.2
2018-10-07T20:52:21.897Z,26.2
2018-10-07T20:55:18.950Z,26.2
2018-10-07T20:58:15.875Z,26.2
2018-10-07T21:01:12.911Z,26.2
2018-10-07T21:04:10.090Z,26.2
2018-10-07T21:07:06.874Z,26.1
2018-10-07T21:10:03.916Z,26.1
2018-10-07T21:13:00.977Z,26.1
2018-10-07T21:15:57.940Z,26.1
2018-10-07T21:18:54.904Z,26
2018-10-07T21:21:51.870Z,26
2018-10-07T21:24:48.904Z,26
2018-10-07T21:27:45.967Z,26
2018-10-07T21:30:42.882Z,26
2018-10-07T21:33:39.889Z,26
2018-10-07T21:36:36.891Z,26
2018-10-07T21:39:34.658Z,26
2018-10-07T21:39:34.660Z,26
2018-10-07T21:42:30.891Z,26
2018-10-07T21:45:27.955Z,26
2018-10-07T21:48:24.937Z,26
2018-10-07T21:51:21.989Z,26
2018-10-07T21:54:18.950Z,26
2018-10-07T21:57:16.410Z,26
2018-10-07T22:00:13.084Z,26
2018-10-07T22:03:09.927Z,26
2018-10-07T22:06:06.922Z,26
2018-10-07T22:09:04.012Z,25.9
2018-10-07T22:12:01.134Z,25.9
2018-10-07T22:17:54.999Z,25.9
2018-10-07T22:20:52.058Z,25.9
2018-10-07T22:23:49.044Z,25.9
2018-10-07T22:26:46.006Z,25.8
2018-10-07T22:29:42.955Z,25.9
2018-10-07T22:32:39.958Z,25.8
2018-10-07T22:35:36.995Z,25.8
2018-10-07T22:38:33.970Z,25.8
2018-10-07T22:44:27.988Z,25.8
2018-10-07T22:47:24.956Z,25.8
2018-10-07T22:50:22.017Z,25.8
2018-10-07T22:53:18.961Z,25.8
2018-10-07T22:56:16.079Z,25.7
2018-10-07T22:59:13.029Z,25.8
2018-10-07T23:02:10.301Z,25.8
2018-10-07T23:05:07.155Z,25.8
2018-10-07T23:08:04.079Z,25.8
2018-10-07T23:11:01.148Z,25.7
2018-10-07T23:13:58.064Z,25.7
2018-10-07T23:16:55.004Z,25.8
2018-10-07T23:19:52.060Z,25.8
2018-10-07T23:22:49.081Z,25.8
2018-10-07T23:25:46.277Z,25.8
2018-10-07T23:28:43.906Z,25.8
2018-10-07T23:31:40.132Z,25.8
2018-10-07T23:34:37.129Z,25.9
2018-10-07T23:37:34.284Z,25.9
2018-10-07T23:40:31.227Z,25.9
2018-10-07T23:43:28.118Z,25.9
2018-10-07T23:46:25.073Z,26
2018-10-07T23:49:22.379Z,26
2018-10-07T23:52:19.199Z,26
2018-10-07T23:55:16.111Z,26
2018-10-07T23:58:13.157Z,26.1
